Terminal Aerodrome Forecast
Issued by NWS Boise, ID

Home | Current Version | Previous Version | Text Only | Print | Product List | Glossary On
Versions: 1 2 3 4 5 6 7 8 9 10 11 12 13 14 15 16 17 18 19 20 21 22
000
FTUS45 KBOI 202323
TAFBOI
TAF
KBOI 202323Z 2100/2124 13012G22KT P6SM VCSH SCT060 OVC100
     FM210100 13012KT 6SM -SHRA OVC040
     FM210400 13012KT 3SM -RASN BR OVC020
     FM210700 13010KT 1SM -SN BR OVC009
     FM211400 13006KT 6SM -SHSN BR SCT015 OVC035
     FM211800 VRB05KT P6SM SCT040 BKN080=

USA.gov is the U.S. government's official web portal to all federal, state and local government web resources and services.